sensor_id;sensor_type;location;lat;lon;timestamp;pressure;altitude;pressure_sealevel;temperature;humidity
65013;BME280;51715;39.432;-77.518;2023-07-13T00:00:47;99269.77;;;33.35;26.81
65013;BME280;51715;39.432;-77.518;2023-07-13T00:03:16;99270.40;;;33.28;26.97
65013;BME280;51715;39.432;-77.518;2023-07-13T00:05:44;99274.42;;;33.24;26.61
65013;BME280;51715;39.432;-77.518;2023-07-13T00:08:12;99278.95;;;33.23;26.83
65013;BME280;51715;39.432;-77.518;2023-07-13T00:10:41;99279.89;;;33.37;26.90
65013;BME280;51715;39.432;-77.518;2023-07-13T00:13:10;99282.98;;;33.19;27.60
65013;BME280;51715;39.432;-77.518;2023-07-13T00:15:38;99283.93;;;32.89;27.35
65013;BME280;51715;39.432;-77.518;2023-07-13T00:18:07;99285.91;;;32.73;27.77
65013;BME280;51715;39.432;-77.518;2023-07-13T00:20:35;99284.67;;;33.17;26.77
65013;BME280;51715;39.432;-77.518;2023-07-13T00:23:04;99284.55;;;32.84;26.51
65013;BME280;51715;39.432;-77.518;2023-07-13T00:25:32;99287.24;;;32.77;26.80
65013;BME280;51715;39.432;-77.518;2023-07-13T00:28:01;99291.94;;;32.66;26.76
65013;BME280;51715;39.432;-77.518;2023-07-13T00:30:30;99290.57;;;32.83;26.67
65013;BME280;51715;39.432;-77.518;2023-07-13T00:33:05;99286.56;;;32.64;27.47
65013;BME280;51715;39.432;-77.518;2023-07-13T00:35:35;99282.78;;;32.51;27.16
65013;BME280;51715;39.432;-77.518;2023-07-13T00:38:03;99280.73;;;32.31;27.90
65013;BME280;51715;39.432;-77.518;2023-07-13T00:40:33;99274.37;;;32.16;28.28
65013;BME280;51715;39.432;-77.518;2023-07-13T00:43:02;99271.50;;;32.04;28.37
65013;BME280;51715;39.432;-77.518;2023-07-13T00:46:14;99274.29;;;31.91;28.67
65013;BME280;51715;39.432;-77.518;2023-07-13T00:48:44;99271.01;;;32.02;28.40
65013;BME280;51715;39.432;-77.518;2023-07-13T00:51:14;99268.05;;;31.70;28.29
65013;BME280;51715;39.432;-77.518;2023-07-13T00:53:44;99266.90;;;31.93;28.89
65013;BME280;51715;39.432;-77.518;2023-07-13T00:56:13;99270.48;;;31.78;29.59
65013;BME280;51715;39.432;-77.518;2023-07-13T00:58:41;99268.58;;;31.44;29.08
65013;BME280;51715;39.432;-77.518;2023-07-13T01:01:10;99266.33;;;31.35;28.54
65013;BME280;51715;39.432;-77.518;2023-07-13T01:03:39;99268.90;;;31.49;29.18
65013;BME280;51715;39.432;-77.518;2023-07-13T01:06:08;99268.11;;;31.37;28.91
65013;BME280;51715;39.432;-77.518;2023-07-13T01:08:38;99270.14;;;31.45;30.01
65013;BME280;51715;39.432;-77.518;2023-07-13T01:11:06;99271.90;;;31.15;29.73
65013;BME280;51715;39.432;-77.518;2023-07-13T01:13:34;99274.42;;;30.95;30.16
65013;BME280;51715;39.432;-77.518;2023-07-13T01:16:15;99276.56;;;30.84;30.04
65013;BME280;51715;39.432;-77.518;2023-07-13T01:18:46;99279.41;;;30.56;31.25
65013;BME280;51715;39.432;-77.518;2023-07-13T01:21:16;99281.62;;;30.82;30.15
65013;BME280;51715;39.432;-77.518;2023-07-13T01:23:45;99287.32;;;30.65;30.83
65013;BME280;51715;39.432;-77.518;2023-07-13T01:26:13;99284.98;;;30.22;31.17
65013;BME280;51715;39.432;-77.518;2023-07-13T01:28:41;99284.24;;;30.49;31.68
65013;BME280;51715;39.432;-77.518;2023-07-13T01:31:10;99285.04;;;30.45;31.76
65013;BME280;51715;39.432;-77.518;2023-07-13T01:33:40;99286.53;;;30.00;31.54
65013;BME280;51715;39.432;-77.518;2023-07-13T01:36:09;99286.05;;;30.28;31.22
65013;BME280;51715;39.432;-77.518;2023-07-13T01:38:38;99282.37;;;30.17;31.76
65013;BME280;51715;39.432;-77.518;2023-07-13T01:41:06;99279.56;;;30.18;31.42
65013;BME280;51715;39.432;-77.518;2023-07-13T01:43:35;99285.77;;;30.16;31.42
65013;BME280;51715;39.432;-77.518;2023-07-13T01:46:05;99287.71;;;29.97;32.17
65013;BME280;51715;39.432;-77.518;2023-07-13T01:48:35;99288.37;;;30.08;31.89
65013;BME280;51715;39.432;-77.518;2023-07-13T01:51:03;99288.81;;;29.98;32.10
65013;BME280;51715;39.432;-77.518;2023-07-13T01:53:32;99293.07;;;29.90;32.04
65013;BME280;51715;39.432;-77.518;2023-07-13T01:56:01;99290.53;;;30.04;32.34
65013;BME280;51715;39.432;-77.518;2023-07-13T01:58:29;99293.00;;;29.79;32.37
65013;BME280;51715;39.432;-77.518;2023-07-13T02:00:59;99299.51;;;29.67;32.78
65013;BME280;51715;39.432;-77.518;2023-07-13T02:03:28;99300.79;;;29.91;32.54
65013;BME280;51715;39.432;-77.518;2023-07-13T02:05:57;99301.51;;;29.62;32.51
65013;BME280;51715;39.432;-77.518;2023-07-13T02:08:26;99302.03;;;29.50;32.97
65013;BME280;51715;39.432;-77.518;2023-07-13T02:10:54;99302.11;;;29.37;33.30
65013;BME280;51715;39.432;-77.518;2023-07-13T02:13:22;99304.82;;;29.38;33.31
65013;BME280;51715;39.432;-77.518;2023-07-13T02:15:51;99304.75;;;29.54;33.25
65013;BME280;51715;39.432;-77.518;2023-07-13T02:18:20;99307.81;;;29.27;33.05
65013;BME280;51715;39.432;-77.518;2023-07-13T02:20:50;99313.86;;;29.72;33.49
65013;BME280;51715;39.432;-77.518;2023-07-13T02:23:19;99316.09;;;29.45;33.21
65013;BME280;51715;39.432;-77.518;2023-07-13T02:25:48;99318.71;;;29.13;33.92
65013;BME280;51715;39.432;-77.518;2023-07-13T02:28:16;99325.83;;;29.25;33.93
65013;BME280;51715;39.432;-77.518;2023-07-13T02:30:45;99329.77;;;29.30;34.54
65013;BME280;51715;39.432;-77.518;2023-07-13T02:33:15;99331.53;;;29.13;34.71
65013;BME280;51715;39.432;-77.518;2023-07-13T02:35:43;99330.62;;;29.11;34.44
65013;BME280;51715;39.432;-77.518;2023-07-13T02:38:11;99329.15;;;29.12;34.21
65013;BME280;51715;39.432;-77.518;2023-07-13T02:40:39;99328.90;;;28.81;34.38
65013;BME280;51715;39.432;-77.518;2023-07-13T02:43:07;99327.38;;;28.94;34.82
65013;BME280;51715;39.432;-77.518;2023-07-13T02:45:35;99321.43;;;28.80;34.71
65013;BME280;51715;39.432;-77.518;2023-07-13T02:48:04;99314.03;;;28.89;35.35
65013;BME280;51715;39.432;-77.518;2023-07-13T02:50:32;99311.57;;;28.58;35.41
65013;BME280;51715;39.432;-77.518;2023-07-13T02:53:01;99308.74;;;28.52;35.32
65013;BME280;51715;39.432;-77.518;2023-07-13T02:55:29;99309.10;;;28.77;35.47
65013;BME280;51715;39.432;-77.518;2023-07-13T02:57:58;99307.55;;;28.80;35.28
65013;BME280;51715;39.432;-77.518;2023-07-13T03:00:26;99303.60;;;28.72;35.37
65013;BME280;51715;39.432;-77.518;2023-07-13T03:02:55;99302.62;;;28.69;35.58
65013;BME280;51715;39.432;-77.518;2023-07-13T03:05:24;99304.30;;;28.61;35.75
65013;BME280;51715;39.432;-77.518;2023-07-13T03:07:52;99310.53;;;28.21;35.90
65013;BME280;51715;39.432;-77.518;2023-07-13T03:10:20;99308.21;;;28.22;35.65
65013;BME280;51715;39.432;-77.518;2023-07-13T03:12:49;99300.41;;;28.26;35.31
65013;BME280;51715;39.432;-77.518;2023-07-13T03:15:18;99296.85;;;28.33;35.01
65013;BME280;51715;39.432;-77.518;2023-07-13T03:17:47;99292.15;;;28.58;35.02
65013;BME280;51715;39.432;-77.518;2023-07-13T03:20:15;99286.56;;;28.56;35.33
65013;BME280;51715;39.432;-77.518;2023-07-13T03:22:44;99282.95;;;28.53;35.17
65013;BME280;51715;39.432;-77.518;2023-07-13T03:25:12;99279.16;;;28.27;35.20
65013;BME280;51715;39.432;-77.518;2023-07-13T03:27:41;99273.92;;;28.47;35.15
65013;BME280;51715;39.432;-77.518;2023-07-13T03:30:09;99270.80;;;28.73;35.04
65013;BME280;51715;39.432;-77.518;2023-07-13T03:32:38;99268.72;;;28.09;35.53
65013;BME280;51715;39.432;-77.518;2023-07-13T03:35:06;99261.66;;;28.54;36.02
65013;BME280;51715;39.432;-77.518;2023-07-13T03:37:34;99257.84;;;28.10;36.09
65013;BME280;51715;39.432;-77.518;2023-07-13T03:40:03;99254.87;;;28.03;36.07
65013;BME280;51715;39.432;-77.518;2023-07-13T03:42:32;99249.87;;;28.01;36.08
65013;BME280;51715;39.432;-77.518;2023-07-13T03:45:00;99248.23;;;28.04;35.82
65013;BME280;51715;39.432;-77.518;2023-07-13T03:47:28;99251.88;;;27.91;35.55
65013;BME280;51715;39.432;-77.518;2023-07-13T03:49:56;99252.28;;;28.15;35.57
65013;BME280;51715;39.432;-77.518;2023-07-13T03:52:25;99257.70;;;28.39;35.73
65013;BME280;51715;39.432;-77.518;2023-07-13T03:54:53;99263.11;;;28.35;35.70
65013;BME280;51715;39.432;-77.518;2023-07-13T03:57:21;99265.39;;;28.02;35.86
65013;BME280;51715;39.432;-77.518;2023-07-13T03:59:49;99263.58;;;27.97;36.10
65013;BME280;51715;39.432;-77.518;2023-07-13T04:04:06;99264.78;;;27.99;35.38
65013;BME280;51715;39.432;-77.518;2023-07-13T04:06:35;99264.79;;;28.17;35.59
65013;BME280;51715;39.432;-77.518;2023-07-13T04:09:04;99261.58;;;28.06;35.63
65013;BME280;51715;39.432;-77.518;2023-07-13T04:11:33;99266.42;;;28.29;35.59
65013;BME280;51715;39.432;-77.518;2023-07-13T04:14:02;99267.78;;;28.16;36.03
65013;BME280;51715;39.432;-77.518;2023-07-13T04:16:30;99266.29;;;27.89;36.70
65013;BME280;51715;39.432;-77.518;2023-07-13T04:18:57;99265.92;;;27.95;37.18
65013;BME280;51715;39.432;-77.518;2023-07-13T04:21:26;99269.63;;;27.82;36.97
65013;BME280;51715;39.432;-77.518;2023-07-13T04:23:54;99267.72;;;27.73;37.15
65013;BME280;51715;39.432;-77.518;2023-07-13T04:26:22;99261.33;;;27.60;37.70
65013;BME280;51715;39.432;-77.518;2023-07-13T04:28:50;99253.45;;;27.44;37.96
65013;BME280;51715;39.432;-77.518;2023-07-13T04:31:18;99253.83;;;27.35;37.90
65013;BME280;51715;39.432;-77.518;2023-07-13T04:33:47;99255.69;;;27.30;38.14
65013;BME280;51715;39.432;-77.518;2023-07-13T04:36:16;99251.79;;;27.29;37.94
65013;BME280;51715;39.432;-77.518;2023-07-13T04:38:44;99250.42;;;27.31;37.88
65013;BME280;51715;39.432;-77.518;2023-07-13T04:41:13;99250.42;;;27.75;37.68
65013;BME280;51715;39.432;-77.518;2023-07-13T04:43:42;99253.58;;;27.31;37.65
65013;BME280;51715;39.432;-77.518;2023-07-13T04:46:13;99257.61;;;27.31;37.49
65013;BME280;51715;39.432;-77.518;2023-07-13T04:48:41;99257.98;;;27.33;37.68
65013;BME280;51715;39.432;-77.518;2023-07-13T04:51:10;99263.07;;;27.33;37.37
65013;BME280;51715;39.432;-77.518;2023-07-13T04:53:39;99264.09;;;27.32;37.77
65013;BME280;51715;39.432;-77.518;2023-07-13T04:56:06;99258.83;;;27.30;37.70
65013;BME280;51715;39.432;-77.518;2023-07-13T04:58:35;99250.46;;;27.47;37.85
65013;BME280;51715;39.432;-77.518;2023-07-13T05:01:05;99241.37;;;27.17;38.43
65013;BME280;51715;39.432;-77.518;2023-07-13T05:03:34;99234.12;;;27.05;38.40
65013;BME280;51715;39.432;-77.518;2023-07-13T05:06:04;99233.25;;;26.96;38.26
65013;BME280;51715;39.432;-77.518;2023-07-13T05:08:33;99230.21;;;27.09;38.61
65013;BME280;51715;39.432;-77.518;2023-07-13T05:11:02;99220.09;;;27.02;38.73
65013;BME280;51715;39.432;-77.518;2023-07-13T05:13:31;99212.20;;;27.10;39.00
65013;BME280;51715;39.432;-77.518;2023-07-13T05:16:02;99210.82;;;27.16;38.74
65013;BME280;51715;39.432;-77.518;2023-07-13T05:18:31;99210.49;;;26.99;38.35
65013;BME280;51715;39.432;-77.518;2023-07-13T05:21:02;99210.54;;;27.05;38.45
65013;BME280;51715;39.432;-77.518;2023-07-13T05:23:31;99205.95;;;27.09;38.67
65013;BME280;51715;39.432;-77.518;2023-07-13T05:25:59;99206.01;;;27.13;38.54
65013;BME280;51715;39.432;-77.518;2023-07-13T05:28:29;99205.51;;;27.14;38.31
65013;BME280;51715;39.432;-77.518;2023-07-13T05:30:58;99208.70;;;26.98;38.09
65013;BME280;51715;39.432;-77.518;2023-07-13T05:33:26;99211.12;;;27.03;37.91
65013;BME280;51715;39.432;-77.518;2023-07-13T05:35:55;99215.98;;;27.29;37.78
65013;BME280;51715;39.432;-77.518;2023-07-13T05:38:23;99214.07;;;27.08;38.26
65013;BME280;51715;39.432;-77.518;2023-07-13T05:40:53;99203.29;;;27.39;38.48
65013;BME280;51715;39.432;-77.518;2023-07-13T05:43:22;99194.70;;;27.06;38.61
65013;BME280;51715;39.432;-77.518;2023-07-13T05:45:53;99194.65;;;27.14;38.97
65013;BME280;51715;39.432;-77.518;2023-07-13T05:48:21;99195.59;;;26.62;39.47
65013;BME280;51715;39.432;-77.518;2023-07-13T05:50:50;99191.02;;;26.61;39.34
65013;BME280;51715;39.432;-77.518;2023-07-13T05:53:19;99184.20;;;26.63;39.34
65013;BME280;51715;39.432;-77.518;2023-07-13T05:55:48;99177.01;;;27.02;39.47
65013;BME280;51715;39.432;-77.518;2023-07-13T05:58:16;99176.74;;;27.01;39.25
65013;BME280;51715;39.432;-77.518;2023-07-13T06:00:45;99176.99;;;27.00;39.28
65013;BME280;51715;39.432;-77.518;2023-07-13T06:03:15;99184.92;;;27.02;38.83
65013;BME280;51715;39.432;-77.518;2023-07-13T06:05:44;99186.27;;;26.81;38.64
65013;BME280;51715;39.432;-77.518;2023-07-13T06:08:13;99187.74;;;26.62;38.92
65013;BME280;51715;39.432;-77.518;2023-07-13T06:10:41;99187.58;;;27.08;38.94
65013;BME280;51715;39.432;-77.518;2023-07-13T06:13:09;99189.22;;;26.84;39.00
65013;BME280;51715;39.432;-77.518;2023-07-13T06:15:38;99186.97;;;26.97;39.48
65013;BME280;51715;39.432;-77.518;2023-07-13T06:18:05;99182.97;;;26.46;39.43
65013;BME280;51715;39.432;-77.518;2023-07-13T06:20:35;99186.40;;;26.88;39.43
65013;BME280;51715;39.432;-77.518;2023-07-13T06:23:03;99191.29;;;26.86;39.50
65013;BME280;51715;39.432;-77.518;2023-07-13T06:25:31;99194.78;;;26.83;39.80
65013;BME280;51715;39.432;-77.518;2023-07-13T06:27:59;99195.02;;;26.58;39.81
65013;BME280;51715;39.432;-77.518;2023-07-13T06:30:28;99187.54;;;26.52;39.77
65013;BME280;51715;39.432;-77.518;2023-07-13T06:32:56;99187.46;;;26.68;39.92
65013;BME280;51715;39.432;-77.518;2023-07-13T06:35:25;99186.45;;;26.65;40.18
65013;BME280;51715;39.432;-77.518;2023-07-13T06:37:53;99184.17;;;26.66;40.18
65013;BME280;51715;39.432;-77.518;2023-07-13T06:40:21;99182.24;;;26.68;40.00
65013;BME280;51715;39.432;-77.518;2023-07-13T06:42:49;99176.00;;;26.71;39.92
65013;BME280;51715;39.432;-77.518;2023-07-13T06:45:18;99173.37;;;26.73;40.00
65013;BME280;51715;39.432;-77.518;2023-07-13T06:47:45;99171.50;;;26.75;40.00
65013;BME280;51715;39.432;-77.518;2023-07-13T06:50:13;99173.68;;;26.75;39.94
65013;BME280;51715;39.432;-77.518;2023-07-13T06:52:42;99168.96;;;26.52;40.18
65013;BME280;51715;39.432;-77.518;2023-07-13T06:55:10;99162.91;;;26.63;40.17
65013;BME280;51715;39.432;-77.518;2023-07-13T06:57:38;99160.28;;;26.87;40.07
65013;BME280;51715;39.432;-77.518;2023-07-13T07:00:07;99157.87;;;26.67;40.29
65013;BME280;51715;39.432;-77.518;2023-07-13T07:02:35;99155.75;;;27.07;40.31
65013;BME280;51715;39.432;-77.518;2023-07-13T07:05:04;99158.85;;;26.82;40.05
65013;BME280;51715;39.432;-77.518;2023-07-13T07:07:32;99156.67;;;26.65;40.16
65013;BME280;51715;39.432;-77.518;2023-07-13T07:09:59;99153.75;;;26.65;40.24
65013;BME280;51715;39.432;-77.518;2023-07-13T07:12:28;99154.74;;;26.84;40.36
65013;BME280;51715;39.432;-77.518;2023-07-13T07:14:57;99156.19;;;26.81;40.40
65013;BME280;51715;39.432;-77.518;2023-07-13T07:17:25;99152.07;;;26.72;40.56
65013;BME280;51715;39.432;-77.518;2023-07-13T07:19:53;99154.80;;;26.68;40.55
65013;BME280;51715;39.432;-77.518;2023-07-13T07:22:22;99158.60;;;26.71;40.27
65013;BME280;51715;39.432;-77.518;2023-07-13T07:24:50;99159.13;;;26.69;40.17
65013;BME280;51715;39.432;-77.518;2023-07-13T07:27:18;99158.45;;;26.67;40.48
65013;BME280;51715;39.432;-77.518;2023-07-13T07:29:47;99159.63;;;26.91;40.52
65013;BME280;51715;39.432;-77.518;2023-07-13T07:32:15;99155.51;;;26.65;40.19
65013;BME280;51715;39.432;-77.518;2023-07-13T07:34:43;99158.69;;;26.41;40.34
65013;BME280;51715;39.432;-77.518;2023-07-13T07:37:13;99160.63;;;26.59;40.39
65013;BME280;51715;39.432;-77.518;2023-07-13T07:39:43;99163.82;;;26.14;40.42
65013;BME280;51715;39.432;-77.518;2023-07-13T07:42:11;99160.69;;;26.59;40.31
65013;BME280;51715;39.432;-77.518;2023-07-13T07:44:41;99159.12;;;26.30;40.62
65013;BME280;51715;39.432;-77.518;2023-07-13T07:47:09;99163.46;;;26.50;40.70
65013;BME280;51715;39.432;-77.518;2023-07-13T07:49:38;99167.49;;;26.47;40.79
65013;BME280;51715;39.432;-77.518;2023-07-13T07:52:07;99169.39;;;26.65;40.96
65013;BME280;51715;39.432;-77.518;2023-07-13T07:54:35;99171.15;;;26.35;40.94
65013;BME280;51715;39.432;-77.518;2023-07-13T07:57:04;99169.72;;;26.37;40.88
65013;BME280;51715;39.432;-77.518;2023-07-13T07:59:32;99168.38;;;26.16;40.87
65013;BME280;51715;39.432;-77.518;2023-07-13T08:02:01;99166.60;;;26.34;40.97
65013;BME280;51715;39.432;-77.518;2023-07-13T08:04:29;99163.70;;;26.31;40.86
65013;BME280;51715;39.432;-77.518;2023-07-13T08:06:57;99162.54;;;26.58;40.87
65013;BME280;51715;39.432;-77.518;2023-07-13T08:09:25;99161.11;;;26.57;40.95
65013;BME280;51715;39.432;-77.518;2023-07-13T08:11:53;99158.71;;;26.02;41.09
65013;BME280;51715;39.432;-77.518;2023-07-13T08:14:21;99161.06;;;26.51;40.99
65013;BME280;51715;39.432;-77.518;2023-07-13T08:16:50;99164.29;;;26.25;40.94
65013;BME280;51715;39.432;-77.518;2023-07-13T08:19:18;99165.83;;;26.24;41.15
65013;BME280;51715;39.432;-77.518;2023-07-13T08:21:46;99164.61;;;26.21;40.71
65013;BME280;51715;39.432;-77.518;2023-07-13T08:24:14;99163.32;;;26.18;41.03
65013;BME280;51715;39.432;-77.518;2023-07-13T08:26:42;99161.48;;;26.14;41.02
65013;BME280;51715;39.432;-77.518;2023-07-13T08:29:10;99157.58;;;26.09;41.38
65013;BME280;51715;39.432;-77.518;2023-07-13T08:31:38;99157.65;;;26.22;41.74
65013;BME280;51715;39.432;-77.518;2023-07-13T08:34:07;99150.68;;;25.86;41.90
65013;BME280;51715;39.432;-77.518;2023-07-13T08:36:35;99148.94;;;26.13;41.84
65013;BME280;51715;39.432;-77.518;2023-07-13T08:39:03;99148.53;;;26.28;42.08
65013;BME280;51715;39.432;-77.518;2023-07-13T08:41:31;99148.59;;;25.82;41.93
65013;BME280;51715;39.432;-77.518;2023-07-13T08:44:01;99148.99;;;26.08;41.91
65013;BME280;51715;39.432;-77.518;2023-07-13T08:46:34;99148.70;;;26.35;41.80
65013;BME280;51715;39.432;-77.518;2023-07-13T08:49:08;99149.10;;;26.11;42.04
65013;BME280;51715;39.432;-77.518;2023-07-13T08:51:43;99146.00;;;26.00;42.56
65013;BME280;51715;39.432;-77.518;2023-07-13T08:54:24;99138.28;;;26.22;42.42
65013;BME280;51715;39.432;-77.518;2023-07-13T08:56:56;99132.13;;;25.80;42.34
65013;BME280;51715;39.432;-77.518;2023-07-13T08:59:27;99132.22;;;26.32;42.14
65013;BME280;51715;39.432;-77.518;2023-07-13T09:02:09;99127.87;;;26.33;42.09
65013;BME280;51715;39.432;-77.518;2023-07-13T09:04:48;99125.67;;;26.12;42.11
65013;BME280;51715;39.432;-77.518;2023-07-13T09:07:26;99117.95;;;26.30;42.46
65013;BME280;51715;39.432;-77.518;2023-07-13T09:10:07;99114.83;;;26.33;42.46
65013;BME280;51715;39.432;-77.518;2023-07-13T09:12:45;99108.41;;;25.76;42.38
65013;BME280;51715;39.432;-77.518;2023-07-13T09:15:23;99111.06;;;26.28;42.48
65013;BME280;51715;39.432;-77.518;2023-07-13T09:17:55;99110.86;;;26.10;42.51
65013;BME280;51715;39.432;-77.518;2023-07-13T09:20:30;99110.57;;;25.87;42.34
65013;BME280;51715;39.432;-77.518;2023-07-13T09:23:03;99112.83;;;25.90;42.29
65013;BME280;51715;39.432;-77.518;2023-07-13T09:25:34;99114.08;;;26.23;42.15
65013;BME280;51715;39.432;-77.518;2023-07-13T09:28:10;99112.55;;;26.07;41.97
65013;BME280;51715;39.432;-77.518;2023-07-13T09:30:46;99109.44;;;26.16;41.87
65013;BME280;51715;39.432;-77.518;2023-07-13T09:33:17;99111.62;;;26.24;41.80
65013;BME280;51715;39.432;-77.518;2023-07-13T09:35:46;99107.18;;;26.55;41.72
65013;BME280;51715;39.432;-77.518;2023-07-13T09:38:16;99110.08;;;26.31;41.70
65013;BME280;51715;39.432;-77.518;2023-07-13T09:40:58;99107.77;;;26.31;41.69
65013;BME280;51715;39.432;-77.518;2023-07-13T09:43:28;99104.06;;;26.33;41.71
65013;BME280;51715;39.432;-77.518;2023-07-13T09:45:56;99107.22;;;26.38;41.78
65013;BME280;51715;39.432;-77.518;2023-07-13T09:48:33;99113.06;;;26.65;41.54
65013;BME280;51715;39.432;-77.518;2023-07-13T09:51:12;99113.04;;;26.38;41.60
65013;BME280;51715;39.432;-77.518;2023-07-13T09:53:46;99116.36;;;26.32;41.30
65013;BME280;51715;39.432;-77.518;2023-07-13T09:56:24;99113.95;;;26.26;41.54
65013;BME280;51715;39.432;-77.518;2023-07-13T09:58:55;99108.41;;;26.31;41.85
65013;BME280;51715;39.432;-77.518;2023-07-13T10:01:33;99109.11;;;26.41;41.58
65013;BME280;51715;39.432;-77.518;2023-07-13T10:04:02;99115.13;;;26.41;41.47
65013;BME280;51715;39.432;-77.518;2023-07-13T10:06:38;99120.89;;;26.55;41.28
65013;BME280;51715;39.432;-77.518;2023-07-13T10:09:08;99129.51;;;26.18;41.43
65013;BME280;51715;39.432;-77.518;2023-07-13T10:11:39;99130.37;;;26.40;41.91
65013;BME280;51715;39.432;-77.518;2023-07-13T10:14:13;99131.75;;;26.15;41.86
65013;BME280;51715;39.432;-77.518;2023-07-13T10:16:45;99135.15;;;26.15;41.98
65013;BME280;51715;39.432;-77.518;2023-07-13T10:19:17;99136.03;;;26.14;42.08
65013;BME280;51715;39.432;-77.518;2023-07-13T10:21:52;99134.37;;;26.37;42.34
65013;BME280;51715;39.432;-77.518;2023-07-13T10:24:22;99135.57;;;26.40;42.32
65013;BME280;51715;39.432;-77.518;2023-07-13T10:26:55;99136.41;;;26.65;42.22
65013;BME280;51715;39.432;-77.518;2023-07-13T10:29:27;99141.40;;;26.17;42.26
65013;BME280;51715;39.432;-77.518;2023-07-13T10:31:57;99139.39;;;26.28;42.08
65013;BME280;51715;39.432;-77.518;2023-07-13T10:34:25;99137.17;;;26.30;42.41
65013;BME280;51715;39.432;-77.518;2023-07-13T10:36:55;99129.67;;;26.30;42.42
65013;BME280;51715;39.432;-77.518;2023-07-13T10:39:26;99132.18;;;26.29;42.67
65013;BME280;51715;39.432;-77.518;2023-07-13T10:41:57;99129.71;;;26.31;42.51
65013;BME280;51715;39.432;-77.518;2023-07-13T10:44:29;99134.50;;;26.68;42.81
65013;BME280;51715;39.432;-77.518;2023-07-13T10:47:00;99130.24;;;26.23;42.76
65013;BME280;51715;39.432;-77.518;2023-07-13T10:49:30;99133.09;;;26.25;42.83
65013;BME280;51715;39.432;-77.518;2023-07-13T10:52:00;99132.32;;;26.65;42.59
65013;BME280;51715;39.432;-77.518;2023-07-13T10:54:31;99133.43;;;26.48;42.62
65013;BME280;51715;39.432;-77.518;2023-07-13T10:57:17;99138.09;;;26.59;42.28
65013;BME280;51715;39.432;-77.518;2023-07-13T10:59:48;99138.38;;;26.42;42.53
65013;BME280;51715;39.432;-77.518;2023-07-13T11:02:25;99143.01;;;26.78;42.15
65013;BME280;51715;39.432;-77.518;2023-07-13T11:04:55;99144.93;;;26.87;42.00
65013;BME280;51715;39.432;-77.518;2023-07-13T11:07:26;99153.49;;;26.93;41.97
65013;BME280;51715;39.432;-77.518;2023-07-13T11:09:56;99162.31;;;27.04;42.66
65013;BME280;51715;39.432;-77.518;2023-07-13T11:12:51;99168.10;;;26.92;42.06
65013;BME280;51715;39.432;-77.518;2023-07-13T11:15:43;99169.92;;;27.03;42.47
65013;BME280;51715;39.432;-77.518;2023-07-13T11:18:21;99172.73;;;27.17;42.29
65013;BME280;51715;39.432;-77.518;2023-07-13T11:20:51;99173.62;;;26.96;42.09
65013;BME280;51715;39.432;-77.518;2023-07-13T11:23:36;99172.84;;;27.18;42.33
65013;BME280;51715;39.432;-77.518;2023-07-13T11:26:40;99178.97;;;27.05;42.38
65013;BME280;51715;39.432;-77.518;2023-07-13T11:29:15;99182.10;;;27.33;42.51
65013;BME280;51715;39.432;-77.518;2023-07-13T11:31:54;99185.88;;;27.06;43.09
65013;BME280;51715;39.432;-77.518;2023-07-13T11:34:27;99181.53;;;27.15;42.65
65013;BME280;51715;39.432;-77.518;2023-07-13T11:36:57;99180.08;;;27.46;42.51
65013;BME280;51715;39.432;-77.518;2023-07-13T11:39:29;99187.43;;;27.29;42.57
65013;BME280;51715;39.432;-77.518;2023-07-13T11:42:03;99184.19;;;27.13;41.94
65013;BME280;51715;39.432;-77.518;2023-07-13T11:44:33;99185.63;;;27.21;42.11
65013;BME280;51715;39.432;-77.518;2023-07-13T11:47:10;99187.39;;;27.54;42.06
65013;BME280;51715;39.432;-77.518;2023-07-13T11:49:43;99186.46;;;27.65;42.04
65013;BME280;51715;39.432;-77.518;2023-07-13T11:52:14;99185.54;;;27.35;42.56
65013;BME280;51715;39.432;-77.518;2023-07-13T11:54:48;99181.63;;;27.73;42.59
65013;BME280;51715;39.432;-77.518;2023-07-13T11:57:24;99188.98;;;27.14;43.02
65013;BME280;51715;39.432;-77.518;2023-07-13T11:59:55;99181.69;;;27.57;41.96
65013;BME280;51715;39.432;-77.518;2023-07-13T12:02:28;99180.88;;;27.66;42.90
65013;BME280;51715;39.432;-77.518;2023-07-13T12:04:59;99181.93;;;27.95;42.34
65013;BME280;51715;39.432;-77.518;2023-07-13T12:07:31;99176.52;;;27.95;42.33
65013;BME280;51715;39.432;-77.518;2023-07-13T12:10:01;99180.73;;;28.08;41.66
65013;BME280;51715;39.432;-77.518;2023-07-13T12:12:30;99177.41;;;28.17;41.30
65013;BME280;51715;39.432;-77.518;2023-07-13T12:14:58;99179.99;;;28.12;40.79
65013;BME280;51715;39.432;-77.518;2023-07-13T12:17:27;99184.15;;;28.25;39.99
65013;BME280;51715;39.432;-77.518;2023-07-13T12:19:56;99190.20;;;28.33;40.85
65013;BME280;51715;39.432;-77.518;2023-07-13T12:22:25;99195.16;;;28.25;41.28
65013;BME280;51715;39.432;-77.518;2023-07-13T12:24:57;99192.24;;;28.41;40.79
65013;BME280;51715;39.432;-77.518;2023-07-13T12:27:27;99190.38;;;28.55;40.36
65013;BME280;51715;39.432;-77.518;2023-07-13T12:30:04;99191.10;;;28.28;40.39
65013;BME280;51715;39.432;-77.518;2023-07-13T12:32:33;99187.98;;;28.64;39.17
65013;BME280;51715;39.432;-77.518;2023-07-13T12:35:14;99188.27;;;28.83;38.79
65013;BME280;51715;39.432;-77.518;2023-07-13T12:37:44;99183.49;;;29.11;39.10
65013;BME280;51715;39.432;-77.518;2023-07-13T12:40:16;99182.22;;;29.15;39.04
65013;BME280;51715;39.432;-77.518;2023-07-13T12:42:46;99180.33;;;29.50;39.25
65013;BME280;51715;39.432;-77.518;2023-07-13T12:45:19;99177.03;;;29.21;38.78
65013;BME280;51715;39.432;-77.518;2023-07-13T12:47:50;99178.47;;;29.36;38.68
65013;BME280;51715;39.432;-77.518;2023-07-13T12:50:20;99179.44;;;29.52;38.32
65013;BME280;51715;39.432;-77.518;2023-07-13T12:52:52;99178.87;;;29.61;37.31
65013;BME280;51715;39.432;-77.518;2023-07-13T12:55:22;99179.42;;;29.66;37.93
65013;BME280;51715;39.432;-77.518;2023-07-13T12:57:53;99180.21;;;29.59;38.16